sensor_id;sensor_type;location;lat;lon;timestamp;pressure;altitude;pressure_sealevel;temperature;humidity
28588;BME280;15787;49.662;10.162;2023-03-03T00:00:25;99395.00;;;0.61;83.60
28588;BME280;15787;49.662;10.162;2023-03-03T00:03:03;99396.06;;;0.73;82.20
28588;BME280;15787;49.662;10.162;2023-03-03T00:05:38;99398.97;;;0.80;81.11
28588;BME280;15787;49.662;10.162;2023-03-03T00:08:11;99402.09;;;0.78;81.24
28588;BME280;15787;49.662;10.162;2023-03-03T00:10:44;99402.81;;;0.94;80.79
28588;BME280;15787;49.662;10.162;2023-03-03T00:13:20;99411.22;;;0.51;80.85
28588;BME280;15787;49.662;10.162;2023-03-03T00:15:53;99400.25;;;0.51;81.37
28588;BME280;15787;49.662;10.162;2023-03-03T00:18:41;99406.00;;;-0.01;82.98
28588;BME280;15787;49.662;10.162;2023-03-03T00:21:22;99407.72;;;0.50;82.93
28588;BME280;15787;49.662;10.162;2023-03-03T00:24:10;99411.06;;;0.59;82.42
28588;BME280;15787;49.662;10.162;2023-03-03T00:26:47;99408.56;;;0.70;81.26
28588;BME280;15787;49.662;10.162;2023-03-03T00:29:33;99407.78;;;0.54;80.65
28588;BME280;15787;49.662;10.162;2023-03-03T00:32:23;99413.03;;;0.28;81.33
28588;BME280;15787;49.662;10.162;2023-03-03T00:35:01;99409.63;;;0.03;83.56
28588;BME280;15787;49.662;10.162;2023-03-03T00:37:53;99413.75;;;-0.19;84.25
28588;BME280;15787;49.662;10.162;2023-03-03T00:40:30;99404.91;;;-0.12;83.80
28588;BME280;15787;49.662;10.162;2023-03-03T00:43:16;99410.25;;;-0.87;86.00
28588;BME280;15787;49.662;10.162;2023-03-03T00:45:51;99410.84;;;-0.26;86.60
28588;BME280;15787;49.662;10.162;2023-03-03T00:48:26;99417.47;;;0.32;84.84
28588;BME280;15787;49.662;10.162;2023-03-03T00:51:15;99416.31;;;0.18;83.91
28588;BME280;15787;49.662;10.162;2023-03-03T00:53:51;99418.75;;;-0.09;83.76
28588;BME280;15787;49.662;10.162;2023-03-03T00:56:24;99418.19;;;-0.14;84.24
28588;BME280;15787;49.662;10.162;2023-03-03T00:58:57;99415.84;;;0.00;83.94
28588;BME280;15787;49.662;10.162;2023-03-03T01:01:32;99417.75;;;-0.72;84.90
28588;BME280;15787;49.662;10.162;2023-03-03T01:04:05;99413.78;;;-0.03;84.75
28588;BME280;15787;49.662;10.162;2023-03-03T01:06:40;99419.50;;;0.20;83.28
28588;BME280;15787;49.662;10.162;2023-03-03T01:09:13;99421.16;;;0.24;82.45
28588;BME280;15787;49.662;10.162;2023-03-03T01:11:46;99416.72;;;-0.39;82.77
28588;BME280;15787;49.662;10.162;2023-03-03T01:14:19;99417.41;;;-0.42;84.70
28588;BME280;15787;49.662;10.162;2023-03-03T01:16:52;99422.84;;;-0.30;84.88
28588;BME280;15787;49.662;10.162;2023-03-03T01:19:26;99428.25;;;-0.34;84.42
28588;BME280;15787;49.662;10.162;2023-03-03T01:22:00;99428.56;;;-0.35;83.60
28588;BME280;15787;49.662;10.162;2023-03-03T01:24:33;99423.00;;;-0.39;83.73
28588;BME280;15787;49.662;10.162;2023-03-03T01:27:06;99409.25;;;-0.54;83.41
28588;BME280;15787;49.662;10.162;2023-03-03T01:29:39;99419.50;;;-0.91;84.69
28588;BME280;15787;49.662;10.162;2023-03-03T01:32:12;99415.91;;;-1.19;86.28
28588;BME280;15787;49.662;10.162;2023-03-03T01:34:45;99409.97;;;-1.21;86.87
28588;BME280;15787;49.662;10.162;2023-03-03T01:37:20;99415.81;;;-1.47;87.90
28588;BME280;15787;49.662;10.162;2023-03-03T01:39:54;99404.94;;;-1.19;88.70
28588;BME280;15787;49.662;10.162;2023-03-03T01:42:27;99401.88;;;-0.78;88.11
28588;BME280;15787;49.662;10.162;2023-03-03T01:45:12;99405.81;;;-0.51;85.71
28588;BME280;15787;49.662;10.162;2023-03-03T01:47:49;99409.09;;;-0.86;85.92
28588;BME280;15787;49.662;10.162;2023-03-03T01:50:33;99406.34;;;-0.86;85.61
28588;BME280;15787;49.662;10.162;2023-03-03T01:53:12;99404.31;;;-0.49;84.91
28588;BME280;15787;49.662;10.162;2023-03-03T01:55:49;99404.88;;;-0.55;84.61
28588;BME280;15787;49.662;10.162;2023-03-03T01:58:25;99407.94;;;-1.49;86.18
28588;BME280;15787;49.662;10.162;2023-03-03T02:01:03;99404.50;;;-1.34;86.80
28588;BME280;15787;49.662;10.162;2023-03-03T02:03:38;99397.09;;;-1.45;86.79
28588;BME280;15787;49.662;10.162;2023-03-03T02:06:14;99390.69;;;-1.98;88.07
28588;BME280;15787;49.662;10.162;2023-03-03T02:08:52;99392.97;;;-1.87;89.46
28588;BME280;15787;49.662;10.162;2023-03-03T02:11:31;99391.34;;;-2.01;90.56
28588;BME280;15787;49.662;10.162;2023-03-03T02:14:06;99389.16;;;-2.19;91.01
28588;BME280;15787;49.662;10.162;2023-03-03T02:16:39;99386.94;;;-2.38;91.96
28588;BME280;15787;49.662;10.162;2023-03-03T02:19:19;99389.00;;;-2.35;92.79
28588;BME280;15787;49.662;10.162;2023-03-03T02:21:56;99389.41;;;-2.00;92.81
28588;BME280;15787;49.662;10.162;2023-03-03T02:24:34;99394.34;;;-1.33;92.20
28588;BME280;15787;49.662;10.162;2023-03-03T02:27:12;99398.13;;;-1.38;91.13
28588;BME280;15787;49.662;10.162;2023-03-03T02:29:47;99396.25;;;-0.97;89.32
28588;BME280;15787;49.662;10.162;2023-03-03T02:32:20;99404.84;;;-1.47;88.64
28588;BME280;15787;49.662;10.162;2023-03-03T02:34:53;99408.69;;;-1.00;88.36
28588;BME280;15787;49.662;10.162;2023-03-03T02:37:27;99403.34;;;-1.20;87.69
28588;BME280;15787;49.662;10.162;2023-03-03T02:40:02;99397.63;;;-2.12;88.86
28588;BME280;15787;49.662;10.162;2023-03-03T02:42:36;99401.78;;;-1.46;89.32
28588;BME280;15787;49.662;10.162;2023-03-03T02:45:09;99402.34;;;-1.28;88.09
28588;BME280;15787;49.662;10.162;2023-03-03T02:47:48;99397.09;;;-1.69;88.19
28588;BME280;15787;49.662;10.162;2023-03-03T02:50:22;99401.72;;;-0.97;87.07
28588;BME280;15787;49.662;10.162;2023-03-03T02:52:55;99405.84;;;-1.03;85.98
28588;BME280;15787;49.662;10.162;2023-03-03T02:55:28;99411.22;;;-1.19;85.22
28588;BME280;15787;49.662;10.162;2023-03-03T02:58:02;99406.41;;;-1.95;85.93
28588;BME280;15787;49.662;10.162;2023-03-03T03:00:35;99405.69;;;-2.48;88.04
28588;BME280;15787;49.662;10.162;2023-03-03T03:03:08;99403.28;;;-2.62;89.89
28588;BME280;15787;49.662;10.162;2023-03-03T03:05:42;99392.66;;;-2.64;90.82
28588;BME280;15787;49.662;10.162;2023-03-03T03:08:16;99399.22;;;-2.44;91.34
28588;BME280;15787;49.662;10.162;2023-03-03T03:10:49;99395.91;;;-2.49;91.42
28588;BME280;15787;49.662;10.162;2023-03-03T03:13:24;99399.06;;;-2.27;92.02
28588;BME280;15787;49.662;10.162;2023-03-03T03:15:58;99395.91;;;-2.17;91.14
28588;BME280;15787;49.662;10.162;2023-03-03T03:18:31;99404.25;;;-2.67;91.49
28588;BME280;15787;49.662;10.162;2023-03-03T03:21:06;99408.91;;;-2.14;92.64
28588;BME280;15787;49.662;10.162;2023-03-03T03:23:39;99404.41;;;-2.63;92.56
28588;BME280;15787;49.662;10.162;2023-03-03T03:26:15;99409.69;;;-2.13;92.38
28588;BME280;15787;49.662;10.162;2023-03-03T03:28:50;99424.31;;;-2.42;92.07
28588;BME280;15787;49.662;10.162;2023-03-03T03:31:23;99427.84;;;-1.97;91.37
28588;BME280;15787;49.662;10.162;2023-03-03T03:33:56;99427.19;;;-1.94;90.71
28588;BME280;15787;49.662;10.162;2023-03-03T03:36:32;99426.00;;;-2.05;90.75
28588;BME280;15787;49.662;10.162;2023-03-03T03:39:05;99428.16;;;-1.65;89.18
28588;BME280;15787;49.662;10.162;2023-03-03T03:41:41;99430.53;;;-1.64;88.58
28588;BME280;15787;49.662;10.162;2023-03-03T03:44:15;99421.53;;;-2.21;88.89
28588;BME280;15787;49.662;10.162;2023-03-03T03:46:48;99418.63;;;-1.92;88.32
28588;BME280;15787;49.662;10.162;2023-03-03T03:49:22;99421.19;;;-1.51;87.71
28588;BME280;15787;49.662;10.162;2023-03-03T03:51:57;99426.28;;;-2.84;88.83
28588;BME280;15787;49.662;10.162;2023-03-03T03:54:33;99418.34;;;-3.18;90.65
28588;BME280;15787;49.662;10.162;2023-03-03T03:57:06;99420.78;;;-3.25;91.89
28588;BME280;15787;49.662;10.162;2023-03-03T03:59:41;99415.19;;;-3.29;93.10
28588;BME280;15787;49.662;10.162;2023-03-03T04:02:14;99421.66;;;-3.33;94.15
28588;BME280;15787;49.662;10.162;2023-03-03T04:04:48;99418.38;;;-3.27;94.63
28588;BME280;15787;49.662;10.162;2023-03-03T04:07:22;99414.28;;;-2.38;94.69
28588;BME280;15787;49.662;10.162;2023-03-03T04:09:55;99424.50;;;-2.14;93.05
28588;BME280;15787;49.662;10.162;2023-03-03T04:12:28;99423.06;;;-1.87;91.41
28588;BME280;15787;49.662;10.162;2023-03-03T04:15:10;99424.66;;;-1.99;89.91
28588;BME280;15787;49.662;10.162;2023-03-03T04:17:43;99428.91;;;-1.89;89.19
28588;BME280;15787;49.662;10.162;2023-03-03T04:20:16;99434.78;;;-2.11;88.65
28588;BME280;15787;49.662;10.162;2023-03-03T04:22:50;99434.25;;;-1.93;87.47
28588;BME280;15787;49.662;10.162;2023-03-03T04:25:23;99430.56;;;-2.41;87.63
28588;BME280;15787;49.662;10.162;2023-03-03T04:27:57;99443.00;;;-3.06;89.39
28588;BME280;15787;49.662;10.162;2023-03-03T04:30:31;99438.66;;;-2.45;90.71
28588;BME280;15787;49.662;10.162;2023-03-03T04:33:04;99427.31;;;-2.23;89.68
28588;BME280;15787;49.662;10.162;2023-03-03T04:35:38;99441.38;;;-3.07;90.40
28588;BME280;15787;49.662;10.162;2023-03-03T04:38:12;99432.41;;;-2.66;91.10
28588;BME280;15787;49.662;10.162;2023-03-03T04:40:45;99426.47;;;-2.68;90.01
28588;BME280;15787;49.662;10.162;2023-03-03T04:43:20;99431.88;;;-3.30;90.38
28588;BME280;15787;49.662;10.162;2023-03-03T04:45:55;99436.03;;;-3.24;91.42
28588;BME280;15787;49.662;10.162;2023-03-03T04:48:28;99441.34;;;-3.28;91.64
28588;BME280;15787;49.662;10.162;2023-03-03T04:51:01;99436.22;;;-2.46;91.20
28588;BME280;15787;49.662;10.162;2023-03-03T04:53:37;99445.88;;;-2.28;88.86
28588;BME280;15787;49.662;10.162;2023-03-03T04:56:12;99439.91;;;-2.10;87.80
28588;BME280;15787;49.662;10.162;2023-03-03T04:58:45;99448.28;;;-2.60;87.55
28588;BME280;15787;49.662;10.162;2023-03-03T05:01:20;99447.66;;;-2.12;87.31
28588;BME280;15787;49.662;10.162;2023-03-03T05:03:54;99454.94;;;-2.16;85.17
28588;BME280;15787;49.662;10.162;2023-03-03T05:06:27;99465.38;;;-2.92;86.42
28588;BME280;15787;49.662;10.162;2023-03-03T05:09:00;99463.81;;;-2.72;88.31
28588;BME280;15787;49.662;10.162;2023-03-03T05:11:34;99454.22;;;-2.25;87.98
28588;BME280;15787;49.662;10.162;2023-03-03T05:14:07;99455.44;;;-2.02;86.34
28588;BME280;15787;49.662;10.162;2023-03-03T05:16:41;99460.56;;;-2.95;86.19
28588;BME280;15787;49.662;10.162;2023-03-03T05:19:15;99467.84;;;-2.99;87.68
28588;BME280;15787;49.662;10.162;2023-03-03T05:21:48;99464.53;;;-2.63;87.88
28588;BME280;15787;49.662;10.162;2023-03-03T05:24:21;99467.72;;;-3.32;88.67
28588;BME280;15787;49.662;10.162;2023-03-03T05:26:54;99464.34;;;-3.29;89.75
28588;BME280;15787;49.662;10.162;2023-03-03T05:29:28;99465.59;;;-3.55;90.38
28588;BME280;15787;49.662;10.162;2023-03-03T05:32:04;99453.66;;;-3.80;91.31
28588;BME280;15787;49.662;10.162;2023-03-03T05:34:37;99463.13;;;-3.48;91.82
28588;BME280;15787;49.662;10.162;2023-03-03T05:37:10;99459.88;;;-3.71;91.77
28588;BME280;15787;49.662;10.162;2023-03-03T05:39:43;99464.09;;;-3.15;91.75
28588;BME280;15787;49.662;10.162;2023-03-03T05:42:16;99461.66;;;-3.08;90.83
28588;BME280;15787;49.662;10.162;2023-03-03T05:44:49;99466.22;;;-3.21;90.61
28588;BME280;15787;49.662;10.162;2023-03-03T05:47:23;99464.44;;;-3.16;90.26
28588;BME280;15787;49.662;10.162;2023-03-03T05:49:56;99466.56;;;-2.72;89.41
28588;BME280;15787;49.662;10.162;2023-03-03T05:52:29;99476.69;;;-2.52;87.23
28588;BME280;15787;49.662;10.162;2023-03-03T05:55:03;99484.06;;;-2.73;86.07
28588;BME280;15787;49.662;10.162;2023-03-03T05:57:35;99474.47;;;-2.59;85.59
28588;BME280;15787;49.662;10.162;2023-03-03T06:00:10;99483.78;;;-3.30;85.41
28588;BME280;15787;49.662;10.162;2023-03-03T06:02:44;99479.47;;;-3.69;87.25
28588;BME280;15787;49.662;10.162;2023-03-03T06:05:18;99484.25;;;-3.28;88.16
28588;BME280;15787;49.662;10.162;2023-03-03T06:07:51;99482.19;;;-3.31;88.67
28588;BME280;15787;49.662;10.162;2023-03-03T06:10:24;99485.69;;;-3.68;89.61
28588;BME280;15787;49.662;10.162;2023-03-03T06:13:00;99492.97;;;-3.81;90.24
28588;BME280;15787;49.662;10.162;2023-03-03T06:15:33;99486.66;;;-3.64;90.44
28588;BME280;15787;49.662;10.162;2023-03-03T06:18:07;99499.63;;;-3.99;90.75
28588;BME280;15787;49.662;10.162;2023-03-03T06:20:40;99492.72;;;-3.97;91.23
28588;BME280;15787;49.662;10.162;2023-03-03T06:23:13;99491.91;;;-4.14;92.45
28588;BME280;15787;49.662;10.162;2023-03-03T06:25:46;99496.84;;;-3.91;93.44
28588;BME280;15787;49.662;10.162;2023-03-03T06:28:19;99501.78;;;-3.38;92.92
28588;BME280;15787;49.662;10.162;2023-03-03T06:30:52;99506.13;;;-3.74;92.48
28588;BME280;15787;49.662;10.162;2023-03-03T06:33:27;99507.06;;;-3.70;93.12
28588;BME280;15787;49.662;10.162;2023-03-03T06:36:00;99509.63;;;-3.28;92.64
28588;BME280;15787;49.662;10.162;2023-03-03T06:38:36;99518.50;;;-3.39;92.04
28588;BME280;15787;49.662;10.162;2023-03-03T06:41:09;99527.59;;;-2.97;91.35
28588;BME280;15787;49.662;10.162;2023-03-03T06:43:43;99524.34;;;-3.49;91.25
28588;BME280;15787;49.662;10.162;2023-03-03T06:46:17;99534.22;;;-2.98;91.91
28588;BME280;15787;49.662;10.162;2023-03-03T06:48:51;99542.34;;;-2.61;91.20
28588;BME280;15787;49.662;10.162;2023-03-03T06:51:30;99538.66;;;-2.85;90.99
28588;BME280;15787;49.662;10.162;2023-03-03T06:54:11;99545.81;;;-2.51;89.98
28588;BME280;15787;49.662;10.162;2023-03-03T06:56:45;99560.53;;;-2.44;89.99
28588;BME280;15787;49.662;10.162;2023-03-03T06:59:20;99548.72;;;-1.95;88.11
28588;BME280;15787;49.662;10.162;2023-03-03T07:01:53;99556.03;;;-2.19;87.27
28588;BME280;15787;49.662;10.162;2023-03-03T07:04:29;99564.91;;;-2.43;87.01
28588;BME280;15787;49.662;10.162;2023-03-03T07:07:10;99560.22;;;-2.63;88.50
28588;BME280;15787;49.662;10.162;2023-03-03T07:09:48;99555.94;;;-2.73;89.82
28588;BME280;15787;49.662;10.162;2023-03-03T07:12:27;99554.78;;;-2.72;90.35
28588;BME280;15787;49.662;10.162;2023-03-03T07:15:12;99558.31;;;-2.71;91.29
28588;BME280;15787;49.662;10.162;2023-03-03T07:17:48;99561.03;;;-2.21;91.33
28588;BME280;15787;49.662;10.162;2023-03-03T07:20:27;99556.34;;;-2.00;92.04
28588;BME280;15787;49.662;10.162;2023-03-03T07:23:13;99551.72;;;-2.08;91.18
28588;BME280;15787;49.662;10.162;2023-03-03T07:25:50;99557.75;;;-1.94;90.88
28588;BME280;15787;49.662;10.162;2023-03-03T07:28:25;99562.38;;;-1.74;91.28
28588;BME280;15787;49.662;10.162;2023-03-03T07:30:59;99562.38;;;-1.29;90.22
28588;BME280;15787;49.662;10.162;2023-03-03T07:33:34;99574.84;;;-0.95;89.08
28588;BME280;15787;49.662;10.162;2023-03-03T07:36:23;99582.63;;;-0.85;87.93
28588;BME280;15787;49.662;10.162;2023-03-03T07:38:59;99586.28;;;-0.69;86.96
28588;BME280;15787;49.662;10.162;2023-03-03T07:41:33;99585.47;;;-0.57;86.58
28588;BME280;15787;49.662;10.162;2023-03-03T07:44:15;99589.34;;;-1.07;86.33
28588;BME280;15787;49.662;10.162;2023-03-03T07:46:49;99588.19;;;-0.94;87.58
28588;BME280;15787;49.662;10.162;2023-03-03T07:49:30;99598.28;;;-0.61;87.54
28588;BME280;15787;49.662;10.162;2023-03-03T07:52:22;99595.47;;;-0.13;87.43
28588;BME280;15787;49.662;10.162;2023-03-03T07:54:56;99599.63;;;-0.31;87.46
28588;BME280;15787;49.662;10.162;2023-03-03T07:57:35;99604.31;;;0.08;86.71
28588;BME280;15787;49.662;10.162;2023-03-03T08:03:16;99605.97;;;0.25;84.24
28588;BME280;15787;49.662;10.162;2023-03-03T08:05:50;99613.09;;;0.14;85.27
28588;BME280;15787;49.662;10.162;2023-03-03T08:08:29;99613.78;;;0.50;86.15
28588;BME280;15787;49.662;10.162;2023-03-03T08:11:02;99623.03;;;0.46;86.08
28588;BME280;15787;49.662;10.162;2023-03-03T08:13:37;99611.91;;;0.54;86.88
28588;BME280;15787;49.662;10.162;2023-03-03T08:16:29;99604.00;;;0.81;86.85
28588;BME280;15787;49.662;10.162;2023-03-03T08:19:08;99600.72;;;1.22;86.74
28588;BME280;15787;49.662;10.162;2023-03-03T08:21:43;99608.47;;;1.67;86.06
28588;BME280;15787;49.662;10.162;2023-03-03T08:24:17;99613.88;;;1.79;85.90
28588;BME280;15787;49.662;10.162;2023-03-03T08:26:50;99607.09;;;2.11;86.08
28588;BME280;15787;49.662;10.162;2023-03-03T08:29:23;99616.75;;;2.21;85.75
28588;BME280;15787;49.662;10.162;2023-03-03T08:31:56;99614.44;;;2.23;85.44
28588;BME280;15787;49.662;10.162;2023-03-03T08:34:30;99615.81;;;2.32;85.63
28588;BME280;15787;49.662;10.162;2023-03-03T08:37:03;99617.81;;;2.54;85.66
28588;BME280;15787;49.662;10.162;2023-03-03T08:39:37;99607.53;;;2.93;85.14
28588;BME280;15787;49.662;10.162;2023-03-03T08:42:10;99612.88;;;3.05;84.77
28588;BME280;15787;49.662;10.162;2023-03-03T08:44:46;99607.25;;;3.21;83.36
28588;BME280;15787;49.662;10.162;2023-03-03T08:47:19;99600.59;;;3.26;82.72
28588;BME280;15787;49.662;10.162;2023-03-03T08:49:52;99585.84;;;3.63;82.78
28588;BME280;15787;49.662;10.162;2023-03-03T08:52:25;99587.97;;;3.73;81.85
28588;BME280;15787;49.662;10.162;2023-03-03T08:55:00;99607.50;;;3.88;81.25
28588;BME280;15787;49.662;10.162;2023-03-03T08:57:33;99601.09;;;4.10;81.02
28588;BME280;15787;49.662;10.162;2023-03-03T09:00:09;99601.47;;;4.38;79.98
28588;BME280;15787;49.662;10.162;2023-03-03T09:02:42;99608.81;;;4.57;79.08
28588;BME280;15787;49.662;10.162;2023-03-03T09:05:16;99614.94;;;4.43;78.88
28588;BME280;15787;49.662;10.162;2023-03-03T09:07:50;99608.47;;;4.62;78.24
28588;BME280;15787;49.662;10.162;2023-03-03T09:10:26;99609.97;;;4.56;78.33
28588;BME280;15787;49.662;10.162;2023-03-03T09:13:06;99614.13;;;4.72;77.10
28588;BME280;15787;49.662;10.162;2023-03-03T09:15:40;99608.47;;;4.98;75.86
28588;BME280;15787;49.662;10.162;2023-03-03T09:18:15;99613.75;;;5.10;76.11
28588;BME280;15787;49.662;10.162;2023-03-03T09:20:50;99609.38;;;5.09;76.01
28588;BME280;15787;49.662;10.162;2023-03-03T09:23:32;99613.19;;;5.38;76.08
28588;BME280;15787;49.662;10.162;2023-03-03T09:26:31;99619.19;;;5.44;75.42
28588;BME280;15787;49.662;10.162;2023-03-03T09:29:23;99620.19;;;5.72;74.67
28588;BME280;15787;49.662;10.162;2023-03-03T09:31:57;99624.44;;;5.59;74.36
28588;BME280;15787;49.662;10.162;2023-03-03T09:34:37;99630.25;;;5.91;74.29
28588;BME280;15787;49.662;10.162;2023-03-03T09:37:19;99620.53;;;5.64;74.80
28588;BME280;15787;49.662;10.162;2023-03-03T09:39:54;99623.84;;;5.84;74.32
28588;BME280;15787;49.662;10.162;2023-03-03T09:42:49;99621.34;;;6.26;72.98
28588;BME280;15787;49.662;10.162;2023-03-03T09:45:45;99617.19;;;6.71;72.15
28588;BME280;15787;49.662;10.162;2023-03-03T09:48:35;99611.63;;;6.67;72.24
28588;BME280;15787;49.662;10.162;2023-03-03T09:51:20;99621.97;;;6.81;70.36
28588;BME280;15787;49.662;10.162;2023-03-03T09:54:10;99620.88;;;7.24;71.64
28588;BME280;15787;49.662;10.162;2023-03-03T09:56:50;99613.34;;;7.28;71.09
28588;BME280;15787;49.662;10.162;2023-03-03T09:59:38;99608.53;;;7.08;69.20
28588;BME280;15787;49.662;10.162;2023-03-03T10:02:26;99609.78;;;7.42;70.54
28588;BME280;15787;49.662;10.162;2023-03-03T10:05:13;99612.13;;;8.03;68.70
28588;BME280;15787;49.662;10.162;2023-03-03T10:08:01;99607.34;;;8.04;68.12
28588;BME280;15787;49.662;10.162;2023-03-03T10:10:49;99611.66;;;8.26;66.86
28588;BME280;15787;49.662;10.162;2023-03-03T10:13:34;99614.50;;;8.05;66.22
28588;BME280;15787;49.662;10.162;2023-03-03T10:16:30;99619.28;;;7.83;67.53
28588;BME280;15787;49.662;10.162;2023-03-03T10:19:29;99626.75;;;8.43;65.26
28588;BME280;15787;49.662;10.162;2023-03-03T10:22:26;99623.88;;;8.57;66.13
28588;BME280;15787;49.662;10.162;2023-03-03T10:25:14;99625.09;;;8.52;66.97
28588;BME280;15787;49.662;10.162;2023-03-03T10:28:12;99623.25;;;9.08;65.03
28588;BME280;15787;49.662;10.162;2023-03-03T10:31:00;99630.59;;;8.73;65.07
28588;BME280;15787;49.662;10.162;2023-03-03T10:33:48;99629.66;;;8.98;64.49
28588;BME280;15787;49.662;10.162;2023-03-03T10:36:39;99634.31;;;9.25;63.39
28588;BME280;15787;49.662;10.162;2023-03-03T10:39:31;99626.22;;;8.79;63.05
28588;BME280;15787;49.662;10.162;2023-03-03T10:42:24;99631.97;;;9.17;62.93
28588;BME280;15787;49.662;10.162;2023-03-03T10:45:14;99638.19;;;8.62;63.30
28588;BME280;15787;49.662;10.162;2023-03-03T10:48:05;99641.38;;;9.37;63.80
28588;BME280;15787;49.662;10.162;2023-03-03T10:50:54;99634.00;;;9.64;63.11
28588;BME280;15787;49.662;10.162;2023-03-03T10:53:32;99642.72;;;9.73;62.51
28588;BME280;15787;49.662;10.162;2023-03-03T10:56:15;99639.22;;;10.06;61.71
28588;BME280;15787;49.662;10.162;2023-03-03T10:59:02;99633.28;;;10.42;60.99
28588;BME280;15787;49.662;10.162;2023-03-03T11:01:46;99632.47;;;10.04;60.69
28588;BME280;15787;49.662;10.162;2023-03-03T11:04:41;99622.84;;;10.08;61.00
28588;BME280;15787;49.662;10.162;2023-03-03T11:07:21;99626.28;;;10.27;60.55
28588;BME280;15787;49.662;10.162;2023-03-03T11:10:20;99626.69;;;10.25;61.18
28588;BME280;15787;49.662;10.162;2023-03-03T11:13:04;99619.72;;;9.99;61.93
28588;BME280;15787;49.662;10.162;2023-03-03T11:15:59;99619.03;;;10.33;61.75
28588;BME280;15787;49.662;10.162;2023-03-03T11:18:48;99610.59;;;10.40;60.75
28588;BME280;15787;49.662;10.162;2023-03-03T11:21:28;99611.22;;;10.85;59.42
28588;BME280;15787;49.662;10.162;2023-03-03T11:27:17;99610.69;;;10.63;59.19
28588;BME280;15787;49.662;10.162;2023-03-03T11:30:15;99607.81;;;10.36;60.01
28588;BME280;15787;49.662;10.162;2023-03-03T11:32:53;99610.03;;;10.52;61.07
28588;BME280;15787;49.662;10.162;2023-03-03T11:35:35;99606.75;;;10.91;60.11
28588;BME280;15787;49.662;10.162;2023-03-03T11:38:21;99608.53;;;10.77;60.69
28588;BME280;15787;49.662;10.162;2023-03-03T11:41:00;99596.97;;;11.06;58.64
28588;BME280;15787;49.662;10.162;2023-03-03T11:43:39;99596.13;;;11.59;58.34
28588;BME280;15787;49.662;10.162;2023-03-03T11:46:17;99591.06;;;11.50;59.09
28588;BME280;15787;49.662;10.162;2023-03-03T11:48:55;99590.81;;;11.14;59.46
28588;BME280;15787;49.662;10.162;2023-03-03T11:51:39;99590.03;;;11.40;58.99
28588;BME280;15787;49.662;10.162;2023-03-03T11:54:19;99593.19;;;11.42;59.78
28588;BME280;15787;49.662;10.162;2023-03-03T11:57:00;99592.41;;;11.65;58.04
28588;BME280;15787;49.662;10.162;2023-03-03T11:59:59;99588.34;;;11.20;58.58
28588;BME280;15787;49.662;10.162;2023-03-03T12:02:57;99595.47;;;11.24;59.00
28588;BME280;15787;49.662;10.162;2023-03-03T12:05:44;99589.34;;;11.06;58.90
28588;BME280;15787;49.662;10.162;2023-03-03T12:08:29;99588.09;;;11.11;58.42
28588;BME280;15787;49.662;10.162;2023-03-03T12:11:10;99585.38;;;11.04;59.46
28588;BME280;15787;49.662;10.162;2023-03-03T12:13:56;99581.19;;;10.92;59.21
28588;BME280;15787;49.662;10.162;2023-03-03T12:16:41;99575.44;;;11.79;57.63
28588;BME280;15787;49.662;10.162;2023-03-03T12:19:26;99569.28;;;11.88;57.37
28588;BME280;15787;49.662;10.162;2023-03-03T12:22:25;99557.53;;;11.96;55.99
28588;BME280;15787;49.662;10.162;2023-03-03T12:25:04;99565.06;;;11.03;57.05
28588;BME280;15787;49.662;10.162;2023-03-03T12:27:44;99551.78;;;11.57;57.79
28588;BME280;15787;49.662;10.162;2023-03-03T12:30:36;99549.25;;;11.43;58.55
28588;BME280;15787;49.662;10.162;2023-03-03T12:33:19;99532.31;;;11.77;57.90
28588;BME280;15787;49.662;10.162;2023-03-03T12:36:04;99531.97;;;11.48;58.85
28588;BME280;15787;49.662;10.162;2023-03-03T12:38:48;99529.53;;;11.96;56.10
28588;BME280;15787;49.662;10.162;2023-03-03T12:41:32;99532.53;;;11.39;57.81
28588;BME280;15787;49.662;10.162;2023-03-03T12:44:14;99535.88;;;11.54;56.12
28588;BME280;15787;49.662;10.162;2023-03-03T12:46:56;99527.94;;;11.95;56.95
28588;BME280;15787;49.662;10.162;2023-03-03T12:49:40;99535.44;;;11.56;56.92
28588;BME280;15787;49.662;10.162;2023-03-03T12:52:28;99529.91;;;11.52;57.71
28588;BME280;15787;49.662;10.162;2023-03-03T12:55:10;99518.13;;;12.27;55.46
28588;BME280;15787;49.662;10.162;2023-03-03T12:57:52;99524.06;;;11.66;56.53
28588;BME280;15787;49.662;10.162;2023-03-03T13:00:41;99513.53;;;11.97;55.84
28588;BME280;15787;49.662;10.162;2023-03-03T13:03:23;99515.56;;;11.27;56.20
28588;BME280;15787;49.662;10.162;2023-03-03T13:06:06;99511.97;;;11.50;55.75
28588;BME280;15787;49.662;10.162;2023-03-03T13:08:53;99511.97;;;12.35;54.36
28588;BME280;15787;49.662;10.162;2023-03-03T13:11:41;99507.94;;;12.36;54.65
28588;BME280;15787;49.662;10.162;2023-03-03T13:14:24;99504.66;;;12.93;52.70
28588;BME280;15787;49.662;10.162;2023-03-03T13:17:06;99506.91;;;12.66;52.99
28588;BME280;15787;49.662;10.162;2023-03-03T13:19:46;99505.50;;;12.19;54.12
28588;BME280;15787;49.662;10.162;2023-03-03T13:22:38;99508.63;;;12.60;53.36
28588;BME280;15787;49.662;10.162;2023-03-03T13:25:27;99499.47;;;12.76;52.29
28588;BME280;15787;49.662;10.162;2023-03-03T13:28:07;99508.41;;;12.87;53.04
28588;BME280;15787;49.662;10.162;2023-03-03T13:30:47;99509.09;;;13.10;51.10
28588;BME280;15787;49.662;10.162;2023-03-03T13:33:25;99500.63;;;12.78;50.61
28588;BME280;15787;49.662;10.162;2023-03-03T13:36:01;99503.94;;;12.89;51.03
28588;BME280;15787;49.662;10.162;2023-03-03T13:38:38;99497.72;;;13.34;49.74
28588;BME280;15787;49.662;10.162;2023-03-03T13:41:17;99492.53;;;13.16;50.25
28588;BME280;15787;49.662;10.162;2023-03-03T13:43:57;99498.84;;;12.13;50.21
28588;BME280;15787;49.662;10.162;2023-03-03T13:46:37;99498.84;;;13.36;51.42
28588;BME280;15787;49.662;10.162;2023-03-03T13:49:24;99495.97;;;13.40;49.29
28588;BME280;15787;49.662;10.162;2023-03-03T13:52:07;99499.16;;;13.06;49.97
28588;BME280;15787;49.662;10.162;2023-03-03T13:54:52;99484.78;;;12.88;49.14
28588;BME280;15787;49.662;10.162;2023-03-03T13:57:44;99492.50;;;13.48;49.66